sensor_id;sensor_type;location;lat;lon;timestamp;P1;durP1;ratioP1;P2;durP2;ratioP2
76850;SDS011;65824;43.726;20.692;2023-06-24T00:01:41;55.83;;;30.73;;
76850;SDS011;65824;43.726;20.692;2023-06-24T00:04:06;19.25;;;8.45;;
76850;SDS011;65824;43.726;20.692;2023-06-24T00:06:32;23.63;;;9.50;;
76850;SDS011;65824;43.726;20.692;2023-06-24T00:08:57;18.17;;;6.13;;
76850;SDS011;65824;43.726;20.692;2023-06-24T00:11:27;19.85;;;6.00;;
76850;SDS011;65824;43.726;20.692;2023-06-24T00:13:55;16.65;;;6.20;;
76850;SDS011;65824;43.726;20.692;2023-06-24T00:16:21;14.85;;;4.72;;
76850;SDS011;65824;43.726;20.692;2023-06-24T00:18:52;17.95;;;5.00;;
76850;SDS011;65824;43.726;20.692;2023-06-24T00:21:25;24.23;;;8.93;;
76850;SDS011;65824;43.726;20.692;2023-06-24T00:23:58;20.25;;;6.95;;
76850;SDS011;65824;43.726;20.692;2023-06-24T00:26:31;31.35;;;8.52;;
76850;SDS011;65824;43.726;20.692;2023-06-24T00:28:57;23.50;;;7.35;;
76850;SDS011;65824;43.726;20.692;2023-06-24T00:31:24;28.25;;;7.82;;
76850;SDS011;65824;43.726;20.692;2023-06-24T00:33:50;25.88;;;8.15;;
76850;SDS011;65824;43.726;20.692;2023-06-24T00:36:17;27.35;;;8.13;;
76850;SDS011;65824;43.726;20.692;2023-06-24T00:38:42;30.58;;;7.68;;
76850;SDS011;65824;43.726;20.692;2023-06-24T00:41:11;26.63;;;7.15;;
76850;SDS011;65824;43.726;20.692;2023-06-24T00:43:36;34.83;;;12.00;;
76850;SDS011;65824;43.726;20.692;2023-06-24T00:46:03;35.30;;;10.07;;
76850;SDS011;65824;43.726;20.692;2023-06-24T00:48:31;26.63;;;11.57;;
76850;SDS011;65824;43.726;20.692;2023-06-24T00:50:57;30.95;;;11.85;;
76850;SDS011;65824;43.726;20.692;2023-06-24T00:53:23;32.75;;;12.57;;
76850;SDS011;65824;43.726;20.692;2023-06-24T00:55:50;33.63;;;12.48;;
76850;SDS011;65824;43.726;20.692;2023-06-24T00:58:16;29.60;;;9.48;;
76850;SDS011;65824;43.726;20.692;2023-06-24T01:00:42;20.52;;;8.63;;
76850;SDS011;65824;43.726;20.692;2023-06-24T01:03:09;18.00;;;8.88;;
76850;SDS011;65824;43.726;20.692;2023-06-24T01:05:39;29.48;;;9.38;;
76850;SDS011;65824;43.726;20.692;2023-06-24T01:08:05;22.05;;;8.35;;
76850;SDS011;65824;43.726;20.692;2023-06-24T01:10:32;22.20;;;8.75;;
76850;SDS011;65824;43.726;20.692;2023-06-24T01:12:57;19.55;;;8.52;;
76850;SDS011;65824;43.726;20.692;2023-06-24T01:15:23;17.13;;;7.90;;
76850;SDS011;65824;43.726;20.692;2023-06-24T01:18:05;22.88;;;7.82;;
76850;SDS011;65824;43.726;20.692;2023-06-24T01:20:36;16.58;;;7.18;;
76850;SDS011;65824;43.726;20.692;2023-06-24T01:31:50;19.05;;;7.20;;
76850;SDS011;65824;43.726;20.692;2023-06-24T01:37:14;17.33;;;6.40;;
76850;SDS011;65824;43.726;20.692;2023-06-24T01:39:47;15.35;;;6.18;;
76850;SDS011;65824;43.726;20.692;2023-06-24T01:42:14;20.95;;;6.50;;
76850;SDS011;65824;43.726;20.692;2023-06-24T01:44:42;16.42;;;6.68;;
76850;SDS011;65824;43.726;20.692;2023-06-24T01:47:08;13.30;;;6.25;;
76850;SDS011;65824;43.726;20.692;2023-06-24T01:49:35;17.42;;;6.72;;
76850;SDS011;65824;43.726;20.692;2023-06-24T01:52:03;15.88;;;6.75;;
76850;SDS011;65824;43.726;20.692;2023-06-24T01:54:30;15.05;;;6.47;;
76850;SDS011;65824;43.726;20.692;2023-06-24T01:56:56;22.67;;;7.00;;
76850;SDS011;65824;43.726;20.692;2023-06-24T01:59:24;14.35;;;6.95;;
76850;SDS011;65824;43.726;20.692;2023-06-24T02:01:53;16.95;;;6.20;;
76850;SDS011;65824;43.726;20.692;2023-06-24T02:04:19;16.05;;;7.38;;
76850;SDS011;65824;43.726;20.692;2023-06-24T02:06:46;16.30;;;7.07;;
76850;SDS011;65824;43.726;20.692;2023-06-24T02:09:13;17.02;;;7.07;;
76850;SDS011;65824;43.726;20.692;2023-06-24T02:11:42;17.35;;;6.65;;
76850;SDS011;65824;43.726;20.692;2023-06-24T02:14:08;14.90;;;7.07;;
76850;SDS011;65824;43.726;20.692;2023-06-24T02:16:35;17.40;;;6.65;;
76850;SDS011;65824;43.726;20.692;2023-06-24T02:19:02;15.82;;;5.97;;
76850;SDS011;65824;43.726;20.692;2023-06-24T02:21:28;15.63;;;6.75;;
76850;SDS011;65824;43.726;20.692;2023-06-24T02:23:55;15.02;;;6.30;;
76850;SDS011;65824;43.726;20.692;2023-06-24T02:26:23;14.38;;;5.93;;
76850;SDS011;65824;43.726;20.692;2023-06-24T02:28:50;17.10;;;6.45;;
76850;SDS011;65824;43.726;20.692;2023-06-24T02:31:21;20.23;;;6.65;;
76850;SDS011;65824;43.726;20.692;2023-06-24T02:33:48;11.77;;;5.93;;
76850;SDS011;65824;43.726;20.692;2023-06-24T02:36:14;12.43;;;5.85;;
76850;SDS011;65824;43.726;20.692;2023-06-24T02:38:39;15.35;;;6.82;;
76850;SDS011;65824;43.726;20.692;2023-06-24T02:41:04;17.02;;;6.78;;
76850;SDS011;65824;43.726;20.692;2023-06-24T02:43:33;15.18;;;6.93;;
76850;SDS011;65824;43.726;20.692;2023-06-24T02:46:01;15.88;;;7.00;;
76850;SDS011;65824;43.726;20.692;2023-06-24T02:48:28;17.55;;;7.93;;
76850;SDS011;65824;43.726;20.692;2023-06-24T02:50:56;14.23;;;7.35;;
76850;SDS011;65824;43.726;20.692;2023-06-24T02:53:23;14.68;;;6.68;;
76850;SDS011;65824;43.726;20.692;2023-06-24T02:55:49;12.68;;;6.57;;
76850;SDS011;65824;43.726;20.692;2023-06-24T02:58:15;18.45;;;6.30;;
76850;SDS011;65824;43.726;20.692;2023-06-24T03:00:41;16.00;;;6.55;;
76850;SDS011;65824;43.726;20.692;2023-06-24T03:03:06;18.90;;;6.38;;
76850;SDS011;65824;43.726;20.692;2023-06-24T03:05:32;14.38;;;5.68;;
76850;SDS011;65824;43.726;20.692;2023-06-24T03:08:01;15.48;;;5.82;;
76850;SDS011;65824;43.726;20.692;2023-06-24T03:10:28;12.90;;;5.78;;
76850;SDS011;65824;43.726;20.692;2023-06-24T03:12:54;11.25;;;5.88;;
76850;SDS011;65824;43.726;20.692;2023-06-24T03:15:19;15.10;;;6.43;;
76850;SDS011;65824;43.726;20.692;2023-06-24T03:17:45;10.48;;;5.35;;
76850;SDS011;65824;43.726;20.692;2023-06-24T03:20:11;15.00;;;6.53;;
76850;SDS011;65824;43.726;20.692;2023-06-24T03:22:37;10.75;;;5.18;;
76850;SDS011;65824;43.726;20.692;2023-06-24T03:25:03;12.95;;;5.70;;
76850;SDS011;65824;43.726;20.692;2023-06-24T03:27:29;13.15;;;6.07;;
76850;SDS011;65824;43.726;20.692;2023-06-24T03:29:56;11.75;;;6.20;;
76850;SDS011;65824;43.726;20.692;2023-06-24T03:32:23;13.65;;;5.68;;
76850;SDS011;65824;43.726;20.692;2023-06-24T03:34:48;14.43;;;6.13;;
76850;SDS011;65824;43.726;20.692;2023-06-24T03:37:15;13.70;;;6.00;;
76850;SDS011;65824;43.726;20.692;2023-06-24T03:39:41;14.75;;;6.25;;
76850;SDS011;65824;43.726;20.692;2023-06-24T03:42:07;13.63;;;6.00;;
76850;SDS011;65824;43.726;20.692;2023-06-24T03:44:32;11.38;;;6.10;;
76850;SDS011;65824;43.726;20.692;2023-06-24T03:46:57;13.85;;;6.13;;
76850;SDS011;65824;43.726;20.692;2023-06-24T03:49:23;14.90;;;5.95;;
76850;SDS011;65824;43.726;20.692;2023-06-24T03:51:49;10.10;;;5.30;;
76850;SDS011;65824;43.726;20.692;2023-06-24T03:54:14;10.88;;;5.57;;
76850;SDS011;65824;43.726;20.692;2023-06-24T03:56:40;15.23;;;5.72;;
76850;SDS011;65824;43.726;20.692;2023-06-24T03:59:07;11.82;;;5.60;;
76850;SDS011;65824;43.726;20.692;2023-06-24T04:01:33;11.48;;;5.10;;
76850;SDS011;65824;43.726;20.692;2023-06-24T04:03:59;10.68;;;5.00;;
76850;SDS011;65824;43.726;20.692;2023-06-24T04:06:25;15.55;;;5.78;;
76850;SDS011;65824;43.726;20.692;2023-06-24T04:08:51;9.80;;;5.60;;
76850;SDS011;65824;43.726;20.692;2023-06-24T04:11:17;10.95;;;5.47;;
76850;SDS011;65824;43.726;20.692;2023-06-24T04:13:43;11.30;;;5.95;;
76850;SDS011;65824;43.726;20.692;2023-06-24T04:16:13;10.95;;;6.18;;
76850;SDS011;65824;43.726;20.692;2023-06-24T04:18:49;13.25;;;6.38;;
76850;SDS011;65824;43.726;20.692;2023-06-24T04:21:14;18.17;;;6.63;;
76850;SDS011;65824;43.726;20.692;2023-06-24T04:23:45;11.18;;;6.40;;
76850;SDS011;65824;43.726;20.692;2023-06-24T04:26:10;15.45;;;6.03;;
76850;SDS011;65824;43.726;20.692;2023-06-24T04:28:35;15.00;;;6.30;;
76850;SDS011;65824;43.726;20.692;2023-06-24T04:31:01;13.88;;;6.57;;
76850;SDS011;65824;43.726;20.692;2023-06-24T04:33:28;15.15;;;6.35;;
76850;SDS011;65824;43.726;20.692;2023-06-24T04:35:54;12.50;;;6.30;;
76850;SDS011;65824;43.726;20.692;2023-06-24T04:38:20;11.73;;;6.10;;
76850;SDS011;65824;43.726;20.692;2023-06-24T04:40:46;15.43;;;6.10;;
76850;SDS011;65824;43.726;20.692;2023-06-24T04:43:12;15.77;;;6.03;;
76850;SDS011;65824;43.726;20.692;2023-06-24T04:45:37;17.38;;;6.57;;
76850;SDS011;65824;43.726;20.692;2023-06-24T04:48:04;15.35;;;6.95;;
76850;SDS011;65824;43.726;20.692;2023-06-24T04:50:30;11.57;;;6.40;;
76850;SDS011;65824;43.726;20.692;2023-06-24T04:52:57;14.07;;;6.00;;
76850;SDS011;65824;43.726;20.692;2023-06-24T04:55:23;16.30;;;6.30;;
76850;SDS011;65824;43.726;20.692;2023-06-24T04:57:48;15.27;;;6.53;;
76850;SDS011;65824;43.726;20.692;2023-06-24T05:00:14;18.30;;;6.60;;
76850;SDS011;65824;43.726;20.692;2023-06-24T05:02:40;14.15;;;6.75;;
76850;SDS011;65824;43.726;20.692;2023-06-24T05:05:07;15.77;;;6.55;;
76850;SDS011;65824;43.726;20.692;2023-06-24T05:07:33;13.00;;;6.68;;
76850;SDS011;65824;43.726;20.692;2023-06-24T05:09:59;15.98;;;6.82;;
76850;SDS011;65824;43.726;20.692;2023-06-24T05:12:25;17.27;;;6.43;;
76850;SDS011;65824;43.726;20.692;2023-06-24T05:14:51;13.10;;;6.78;;
76850;SDS011;65824;43.726;20.692;2023-06-24T05:17:19;14.20;;;7.57;;
76850;SDS011;65824;43.726;20.692;2023-06-24T05:19:45;15.77;;;7.20;;
76850;SDS011;65824;43.726;20.692;2023-06-24T05:22:12;14.57;;;7.45;;
76850;SDS011;65824;43.726;20.692;2023-06-24T05:24:37;13.32;;;6.72;;
76850;SDS011;65824;43.726;20.692;2023-06-24T05:27:04;15.35;;;6.95;;
76850;SDS011;65824;43.726;20.692;2023-06-24T05:29:30;11.32;;;6.55;;
76850;SDS011;65824;43.726;20.692;2023-06-24T05:31:56;15.60;;;7.78;;
76850;SDS011;65824;43.726;20.692;2023-06-24T05:34:22;13.70;;;7.32;;
76850;SDS011;65824;43.726;20.692;2023-06-24T05:36:48;12.48;;;7.53;;
76850;SDS011;65824;43.726;20.692;2023-06-24T05:39:16;14.10;;;7.05;;
76850;SDS011;65824;43.726;20.692;2023-06-24T05:41:45;13.77;;;6.95;;
76850;SDS011;65824;43.726;20.692;2023-06-24T05:44:11;13.70;;;7.13;;
76850;SDS011;65824;43.726;20.692;2023-06-24T05:46:36;12.95;;;7.40;;
76850;SDS011;65824;43.726;20.692;2023-06-24T05:49:03;13.65;;;7.15;;
76850;SDS011;65824;43.726;20.692;2023-06-24T05:51:29;17.73;;;7.68;;
76850;SDS011;65824;43.726;20.692;2023-06-24T05:53:56;16.73;;;7.53;;
76850;SDS011;65824;43.726;20.692;2023-06-24T05:56:21;16.05;;;7.50;;
76850;SDS011;65824;43.726;20.692;2023-06-24T05:58:50;15.75;;;6.97;;
76850;SDS011;65824;43.726;20.692;2023-06-24T06:01:15;15.38;;;7.57;;
76850;SDS011;65824;43.726;20.692;2023-06-24T06:03:41;14.88;;;7.80;;
76850;SDS011;65824;43.726;20.692;2023-06-24T06:06:08;14.27;;;7.97;;
76850;SDS011;65824;43.726;20.692;2023-06-24T06:08:34;14.52;;;8.02;;
76850;SDS011;65824;43.726;20.692;2023-06-24T06:10:59;18.00;;;7.18;;
76850;SDS011;65824;43.726;20.692;2023-06-24T06:13:27;12.23;;;7.35;;
76850;SDS011;65824;43.726;20.692;2023-06-24T06:15:53;15.43;;;7.70;;
76850;SDS011;65824;43.726;20.692;2023-06-24T06:18:19;12.07;;;7.78;;
76850;SDS011;65824;43.726;20.692;2023-06-24T06:20:44;16.38;;;7.70;;
76850;SDS011;65824;43.726;20.692;2023-06-24T06:23:10;14.07;;;8.18;;
76850;SDS011;65824;43.726;20.692;2023-06-24T06:25:36;15.35;;;7.85;;
76850;SDS011;65824;43.726;20.692;2023-06-24T06:28:03;14.05;;;8.02;;
76850;SDS011;65824;43.726;20.692;2023-06-24T06:30:29;13.18;;;7.50;;
76850;SDS011;65824;43.726;20.692;2023-06-24T06:32:54;14.82;;;7.45;;
76850;SDS011;65824;43.726;20.692;2023-06-24T06:35:20;15.60;;;7.28;;
76850;SDS011;65824;43.726;20.692;2023-06-24T06:37:45;11.93;;;7.40;;
76850;SDS011;65824;43.726;20.692;2023-06-24T06:40:17;14.93;;;7.40;;
76850;SDS011;65824;43.726;20.692;2023-06-24T06:42:46;16.10;;;7.72;;
76850;SDS011;65824;43.726;20.692;2023-06-24T06:45:12;15.30;;;6.97;;
76850;SDS011;65824;43.726;20.692;2023-06-24T06:47:39;14.15;;;7.78;;
76850;SDS011;65824;43.726;20.692;2023-06-24T06:50:04;15.60;;;7.97;;
76850;SDS011;65824;43.726;20.692;2023-06-24T06:52:30;18.42;;;8.05;;
76850;SDS011;65824;43.726;20.692;2023-06-24T06:54:56;15.30;;;8.32;;
76850;SDS011;65824;43.726;20.692;2023-06-24T06:57:22;14.65;;;7.15;;
76850;SDS011;65824;43.726;20.692;2023-06-24T06:59:50;15.60;;;7.57;;
76850;SDS011;65824;43.726;20.692;2023-06-24T07:02:16;13.48;;;6.88;;
76850;SDS011;65824;43.726;20.692;2023-06-24T07:04:43;12.75;;;7.72;;
76850;SDS011;65824;43.726;20.692;2023-06-24T07:07:15;15.30;;;7.68;;
76850;SDS011;65824;43.726;20.692;2023-06-24T07:09:41;13.43;;;7.22;;
76850;SDS011;65824;43.726;20.692;2023-06-24T07:12:09;15.95;;;7.57;;
76850;SDS011;65824;43.726;20.692;2023-06-24T07:14:35;17.83;;;8.30;;
76850;SDS011;65824;43.726;20.692;2023-06-24T07:17:04;18.92;;;6.90;;
76850;SDS011;65824;43.726;20.692;2023-06-24T07:19:30;14.52;;;6.53;;
76850;SDS011;65824;43.726;20.692;2023-06-24T07:21:56;12.00;;;6.97;;
76850;SDS011;65824;43.726;20.692;2023-06-24T07:24:24;15.38;;;7.22;;
76850;SDS011;65824;43.726;20.692;2023-06-24T07:26:50;15.38;;;6.57;;
76850;SDS011;65824;43.726;20.692;2023-06-24T07:29:16;12.57;;;6.00;;
76850;SDS011;65824;43.726;20.692;2023-06-24T07:31:41;11.07;;;6.15;;
76850;SDS011;65824;43.726;20.692;2023-06-24T07:34:07;16.55;;;6.38;;
76850;SDS011;65824;43.726;20.692;2023-06-24T07:36:32;16.58;;;6.53;;
76850;SDS011;65824;43.726;20.692;2023-06-24T07:39:01;14.65;;;6.75;;
76850;SDS011;65824;43.726;20.692;2023-06-24T07:41:26;16.25;;;6.80;;
76850;SDS011;65824;43.726;20.692;2023-06-24T07:43:52;15.05;;;6.93;;
76850;SDS011;65824;43.726;20.692;2023-06-24T07:46:18;15.38;;;7.47;;
76850;SDS011;65824;43.726;20.692;2023-06-24T07:48:44;19.08;;;7.38;;
76850;SDS011;65824;43.726;20.692;2023-06-24T07:51:12;11.88;;;6.93;;
76850;SDS011;65824;43.726;20.692;2023-06-24T07:53:39;15.77;;;7.15;;
76850;SDS011;65824;43.726;20.692;2023-06-24T07:56:04;15.90;;;7.60;;
76850;SDS011;65824;43.726;20.692;2023-06-24T07:58:29;14.88;;;6.95;;
76850;SDS011;65824;43.726;20.692;2023-06-24T08:00:55;10.88;;;6.85;;
76850;SDS011;65824;43.726;20.692;2023-06-24T08:03:21;14.13;;;6.72;;
76850;SDS011;65824;43.726;20.692;2023-06-24T08:05:48;16.50;;;6.65;;
76850;SDS011;65824;43.726;20.692;2023-06-24T08:08:14;14.30;;;6.57;;
76850;SDS011;65824;43.726;20.692;2023-06-24T08:10:43;13.23;;;6.95;;
76850;SDS011;65824;43.726;20.692;2023-06-24T08:13:10;16.98;;;7.57;;
76850;SDS011;65824;43.726;20.692;2023-06-24T08:15:35;14.63;;;7.90;;
76850;SDS011;65824;43.726;20.692;2023-06-24T08:18:02;14.07;;;8.32;;
76850;SDS011;65824;43.726;20.692;2023-06-24T08:20:28;17.45;;;8.10;;
76850;SDS011;65824;43.726;20.692;2023-06-24T08:22:59;13.77;;;8.00;;
76850;SDS011;65824;43.726;20.692;2023-06-24T08:25:24;12.55;;;7.38;;
76850;SDS011;65824;43.726;20.692;2023-06-24T08:27:51;17.67;;;8.75;;
76850;SDS011;65824;43.726;20.692;2023-06-24T08:30:17;15.63;;;9.30;;
76850;SDS011;65824;43.726;20.692;2023-06-24T08:32:43;17.58;;;9.43;;
76850;SDS011;65824;43.726;20.692;2023-06-24T08:35:10;17.83;;;9.80;;
76850;SDS011;65824;43.726;20.692;2023-06-24T08:37:36;19.15;;;9.35;;
76850;SDS011;65824;43.726;20.692;2023-06-24T08:40:03;14.93;;;8.90;;
76850;SDS011;65824;43.726;20.692;2023-06-24T08:42:29;16.70;;;8.90;;
76850;SDS011;65824;43.726;20.692;2023-06-24T08:44:56;14.00;;;8.05;;
76850;SDS011;65824;43.726;20.692;2023-06-24T08:47:23;21.00;;;8.98;;
76850;SDS011;65824;43.726;20.692;2023-06-24T08:49:53;12.95;;;8.05;;
76850;SDS011;65824;43.726;20.692;2023-06-24T08:52:25;16.83;;;8.68;;
76850;SDS011;65824;43.726;20.692;2023-06-24T08:54:52;13.40;;;8.55;;
76850;SDS011;65824;43.726;20.692;2023-06-24T08:57:23;15.00;;;8.48;;
76850;SDS011;65824;43.726;20.692;2023-06-24T08:59:48;16.27;;;9.35;;
76850;SDS011;65824;43.726;20.692;2023-06-24T09:02:14;13.95;;;7.82;;
76850;SDS011;65824;43.726;20.692;2023-06-24T09:04:40;15.10;;;8.48;;
76850;SDS011;65824;43.726;20.692;2023-06-24T09:07:06;16.90;;;9.05;;
76850;SDS011;65824;43.726;20.692;2023-06-24T09:09:41;16.63;;;9.05;;
76850;SDS011;65824;43.726;20.692;2023-06-24T09:12:09;19.23;;;10.10;;
76850;SDS011;65824;43.726;20.692;2023-06-24T09:14:37;20.60;;;10.35;;
76850;SDS011;65824;43.726;20.692;2023-06-24T09:17:02;23.38;;;10.63;;
76850;SDS011;65824;43.726;20.692;2023-06-24T09:19:36;18.67;;;11.38;;
76850;SDS011;65824;43.726;20.692;2023-06-24T09:22:06;20.98;;;11.23;;
76850;SDS011;65824;43.726;20.692;2023-06-24T09:24:41;22.15;;;11.43;;
76850;SDS011;65824;43.726;20.692;2023-06-24T09:27:10;17.05;;;11.27;;
76850;SDS011;65824;43.726;20.692;2023-06-24T09:29:40;18.30;;;11.30;;
76850;SDS011;65824;43.726;20.692;2023-06-24T09:32:07;19.27;;;12.25;;
76850;SDS011;65824;43.726;20.692;2023-06-24T09:34:33;16.85;;;10.95;;
76850;SDS011;65824;43.726;20.692;2023-06-24T09:36:59;16.92;;;10.70;;
76850;SDS011;65824;43.726;20.692;2023-06-24T09:39:26;16.45;;;10.05;;
76850;SDS011;65824;43.726;20.692;2023-06-24T09:41:59;21.70;;;11.30;;
76850;SDS011;65824;43.726;20.692;2023-06-24T09:44:26;17.98;;;11.68;;
76850;SDS011;65824;43.726;20.692;2023-06-24T09:46:59;21.48;;;11.45;;
76850;SDS011;65824;43.726;20.692;2023-06-24T09:49:25;14.63;;;9.70;;
76850;SDS011;65824;43.726;20.692;2023-06-24T09:51:54;19.58;;;10.73;;
76850;SDS011;65824;43.726;20.692;2023-06-24T09:54:28;18.25;;;10.68;;
76850;SDS011;65824;43.726;20.692;2023-06-24T09:56:54;16.42;;;10.57;;
76850;SDS011;65824;43.726;20.692;2023-06-24T09:59:21;18.40;;;10.60;;
76850;SDS011;65824;43.726;20.692;2023-06-24T10:01:47;17.25;;;11.23;;
76850;SDS011;65824;43.726;20.692;2023-06-24T10:04:18;22.75;;;11.85;;
76850;SDS011;65824;43.726;20.692;2023-06-24T10:06:45;17.67;;;11.55;;
76850;SDS011;65824;43.726;20.692;2023-06-24T10:09:12;19.08;;;11.25;;
76850;SDS011;65824;43.726;20.692;2023-06-24T10:11:46;21.08;;;12.40;;
76850;SDS011;65824;43.726;20.692;2023-06-24T10:14:12;21.45;;;14.50;;
76850;SDS011;65824;43.726;20.692;2023-06-24T10:16:42;22.80;;;12.88;;
76850;SDS011;65824;43.726;20.692;2023-06-24T10:19:09;20.30;;;13.02;;
76850;SDS011;65824;43.726;20.692;2023-06-24T10:24:12;19.83;;;12.70;;
76850;SDS011;65824;43.726;20.692;2023-06-24T10:26:39;25.98;;;14.27;;
76850;SDS011;65824;43.726;20.692;2023-06-24T10:29:08;20.42;;;12.20;;
76850;SDS011;65824;43.726;20.692;2023-06-24T10:37:11;18.83;;;12.13;;
76850;SDS011;65824;43.726;20.692;2023-06-24T10:40:02;19.70;;;12.05;;
76850;SDS011;65824;43.726;20.692;2023-06-24T10:42:31;23.70;;;12.80;;
76850;SDS011;65824;43.726;20.692;2023-06-24T10:45:15;21.85;;;12.77;;
76850;SDS011;65824;43.726;20.692;2023-06-24T10:47:42;23.88;;;14.55;;
76850;SDS011;65824;43.726;20.692;2023-06-24T10:50:10;22.45;;;14.98;;
76850;SDS011;65824;43.726;20.692;2023-06-24T10:52:39;22.90;;;15.05;;
76850;SDS011;65824;43.726;20.692;2023-06-24T10:55:07;29.33;;;18.63;;
76850;SDS011;65824;43.726;20.692;2023-06-24T10:57:35;32.38;;;21.95;;
76850;SDS011;65824;43.726;20.692;2023-06-24T11:00:02;34.45;;;22.63;;
76850;SDS011;65824;43.726;20.692;2023-06-24T11:02:33;28.38;;;17.95;;
76850;SDS011;65824;43.726;20.692;2023-06-24T11:05:01;26.90;;;17.80;;
76850;SDS011;65824;43.726;20.692;2023-06-24T11:07:29;27.85;;;18.55;;
76850;SDS011;65824;43.726;20.692;2023-06-24T11:10:06;32.67;;;19.98;;
76850;SDS011;65824;43.726;20.692;2023-06-24T11:12:33;33.05;;;20.58;;
76850;SDS011;65824;43.726;20.692;2023-06-24T11:15:05;31.67;;;20.33;;
76850;SDS011;65824;43.726;20.692;2023-06-24T11:17:33;33.78;;;19.50;;
76850;SDS011;65824;43.726;20.692;2023-06-24T11:20:00;29.35;;;19.52;;
76850;SDS011;65824;43.726;20.692;2023-06-24T11:22:25;29.30;;;18.35;;
76850;SDS011;65824;43.726;20.692;2023-06-24T11:24:51;31.15;;;18.55;;
76850;SDS011;65824;43.726;20.692;2023-06-24T11:27:28;30.23;;;17.95;;
76850;SDS011;65824;43.726;20.692;2023-06-24T11:29:55;27.42;;;18.10;;
76850;SDS011;65824;43.726;20.692;2023-06-24T11:32:23;28.15;;;18.17;;
76850;SDS011;65824;43.726;20.692;2023-06-24T11:35:06;28.50;;;18.77;;
76850;SDS011;65824;43.726;20.692;2023-06-24T11:37:33;26.13;;;17.70;;
76850;SDS011;65824;43.726;20.692;2023-06-24T11:40:05;26.17;;;17.80;;
76850;SDS011;65824;43.726;20.692;2023-06-24T11:42:38;25.98;;;19.23;;
76850;SDS011;65824;43.726;20.692;2023-06-24T11:45:10;27.17;;;18.65;;
76850;SDS011;65824;43.726;20.692;2023-06-24T11:47:44;52.35;;;32.92;;
76850;SDS011;65824;43.726;20.692;2023-06-24T11:50:11;46.47;;;31.80;;
76850;SDS011;65824;43.726;20.692;2023-06-24T11:52:41;44.13;;;31.48;;
76850;SDS011;65824;43.726;20.692;2023-06-24T11:55:12;33.72;;;23.48;;
76850;SDS011;65824;43.726;20.692;2023-06-24T11:57:59;33.95;;;24.15;;
76850;SDS011;65824;43.726;20.692;2023-06-24T12:00:45;31.02;;;21.55;;
76850;SDS011;65824;43.726;20.692;2023-06-24T12:03:12;26.98;;;19.88;;
76850;SDS011;65824;43.726;20.692;2023-06-24T12:05:38;31.17;;;19.85;;
76850;SDS011;65824;43.726;20.692;2023-06-24T12:08:15;29.23;;;20.63;;
76850;SDS011;65824;43.726;20.692;2023-06-24T12:10:41;27.95;;;19.25;;
76850;SDS011;65824;43.726;20.692;2023-06-24T12:13:11;30.13;;;20.48;;
76850;SDS011;65824;43.726;20.692;2023-06-24T12:15:41;29.95;;;20.70;;
76850;SDS011;65824;43.726;20.692;2023-06-24T12:18:15;31.15;;;19.63;;
76850;SDS011;65824;43.726;20.692;2023-06-24T12:20:41;30.75;;;20.17;;
76850;SDS011;65824;43.726;20.692;2023-06-24T12:23:13;27.20;;;19.90;;
76850;SDS011;65824;43.726;20.692;2023-06-24T12:25:39;26.13;;;19.17;;
76850;SDS011;65824;43.726;20.692;2023-06-24T12:28:08;27.40;;;19.25;;
76850;SDS011;65824;43.726;20.692;2023-06-24T12:30:35;23.08;;;17.17;;
76850;SDS011;65824;43.726;20.692;2023-06-24T12:33:01;24.73;;;17.23;;
76850;SDS011;65824;43.726;20.692;2023-06-24T12:35:28;22.17;;;16.77;;
76850;SDS011;65824;43.726;20.692;2023-06-24T12:37:54;23.50;;;17.00;;
76850;SDS011;65824;43.726;20.692;2023-06-24T12:40:20;24.08;;;17.35;;
76850;SDS011;65824;43.726;20.692;2023-06-24T12:42:46;21.73;;;16.25;;
76850;SDS011;65824;43.726;20.692;2023-06-24T12:45:13;23.17;;;16.38;;
76850;SDS011;65824;43.726;20.692;2023-06-24T12:47:39;23.83;;;17.00;;
76850;SDS011;65824;43.726;20.692;2023-06-24T12:50:04;22.70;;;16.67;;
76850;SDS011;65824;43.726;20.692;2023-06-24T12:52:33;23.05;;;15.90;;
76850;SDS011;65824;43.726;20.692;2023-06-24T12:55:00;21.55;;;15.60;;
76850;SDS011;65824;43.726;20.692;2023-06-24T12:57:25;26.58;;;16.85;;
76850;SDS011;65824;43.726;20.692;2023-06-24T12:59:51;21.73;;;15.88;;
76850;SDS011;65824;43.726;20.692;2023-06-24T13:02:16;21.05;;;15.43;;
76850;SDS011;65824;43.726;20.692;2023-06-24T13:04:42;19.92;;;15.55;;
76850;SDS011;65824;43.726;20.692;2023-06-24T13:07:07;22.65;;;15.23;;
76850;SDS011;65824;43.726;20.692;2023-06-24T13:09:39;29.33;;;21.83;;
76850;SDS011;65824;43.726;20.692;2023-06-24T13:12:05;23.65;;;16.30;;
76850;SDS011;65824;43.726;20.692;2023-06-24T13:14:31;23.85;;;16.13;;
76850;SDS011;65824;43.726;20.692;2023-06-24T13:16:56;20.67;;;15.30;;
76850;SDS011;65824;43.726;20.692;2023-06-24T13:19:22;22.90;;;16.20;;
76850;SDS011;65824;43.726;20.692;2023-06-24T13:21:51;22.95;;;16.38;;
76850;SDS011;65824;43.726;20.692;2023-06-24T13:24:17;22.48;;;15.80;;
76850;SDS011;65824;43.726;20.692;2023-06-24T13:26:43;23.75;;;16.27;;
76850;SDS011;65824;43.726;20.692;2023-06-24T13:29:10;23.20;;;15.50;;
76850;SDS011;65824;43.726;20.692;2023-06-24T13:31:38;23.38;;;16.40;;
76850;SDS011;65824;43.726;20.692;2023-06-24T13:34:05;27.42;;;16.15;;
76850;SDS011;65824;43.726;20.692;2023-06-24T13:39:07;23.60;;;15.45;;
76850;SDS011;65824;43.726;20.692;2023-06-24T13:41:36;22.88;;;15.55;;
76850;SDS011;65824;43.726;20.692;2023-06-24T13:44:02;26.90;;;17.02;;
76850;SDS011;65824;43.726;20.692;2023-06-24T13:46:28;28.08;;;17.48;;
76850;SDS011;65824;43.726;20.692;2023-06-24T13:48:54;26.88;;;17.23;;
76850;SDS011;65824;43.726;20.692;2023-06-24T13:51:22;25.85;;;16.98;;
76850;SDS011;65824;43.726;20.692;2023-06-24T13:53:48;23.92;;;15.80;;
76850;SDS011;65824;43.726;20.692;2023-06-24T13:56:16;24.55;;;16.15;;
76850;SDS011;65824;43.726;20.692;2023-06-24T13:58:42;25.55;;;16.00;;
76850;SDS011;65824;43.726;20.692;2023-06-24T14:01:08;25.40;;;17.45;;
76850;SDS011;65824;43.726;20.692;2023-06-24T14:03:36;25.48;;;16.80;;
76850;SDS011;65824;43.726;20.692;2023-06-24T14:06:02;25.75;;;18.70;;
76850;SDS011;65824;43.726;20.692;2023-06-24T14:08:29;25.05;;;16.33;;
76850;SDS011;65824;43.726;20.692;2023-06-24T14:10:58;23.70;;;15.57;;
76850;SDS011;65824;43.726;20.692;2023-06-24T14:13:30;23.13;;;15.13;;
76850;SDS011;65824;43.726;20.692;2023-06-24T14:15:56;23.33;;;15.85;;
76850;SDS011;65824;43.726;20.692;2023-06-24T14:18:28;21.00;;;14.75;;
76850;SDS011;65824;43.726;20.692;2023-06-24T14:21:00;22.95;;;15.45;;
76850;SDS011;65824;43.726;20.692;2023-06-24T14:23:25;26.67;;;15.75;;
76850;SDS011;65824;43.726;20.692;2023-06-24T14:25:53;24.60;;;15.30;;
76850;SDS011;65824;43.726;20.692;2023-06-24T14:28:20;27.30;;;16.63;;
76850;SDS011;65824;43.726;20.692;2023-06-24T14:30:46;21.73;;;14.48;;
76850;SDS011;65824;43.726;20.692;2023-06-24T14:33:12;23.80;;;14.48;;
76850;SDS011;65824;43.726;20.692;2023-06-24T14:35:39;22.80;;;15.05;;
76850;SDS011;65824;43.726;20.692;2023-06-24T14:38:06;23.17;;;14.43;;
76850;SDS011;65824;43.726;20.692;2023-06-24T14:40:32;20.85;;;14.57;;